createdAt,value
2022-10-09T00:01:20.952Z,8.10
2022-10-09T00:03:50.168Z,8.00
2022-10-09T00:06:21.297Z,8.00
2022-10-09T00:08:48.715Z,8.00
2022-10-09T00:11:19.276Z,7.90
2022-10-09T00:13:47.225Z,7.80
2022-10-09T00:16:15.798Z,7.80
2022-10-09T00:18:44.035Z,7.80
2022-10-09T00:21:22.075Z,7.60
2022-10-09T00:23:50.673Z,7.60
2022-10-09T00:26:18.274Z,7.60
2022-10-09T00:28:46.254Z,7.70
2022-10-09T00:31:16.147Z,7.70
2022-10-09T00:33:43.956Z,7.80
2022-10-09T00:36:14.733Z,7.80
2022-10-09T00:38:42.171Z,7.70
2022-10-09T00:41:31.150Z,7.60
2022-10-09T00:44:43.380Z,7.60
2022-10-09T00:47:40.259Z,7.60
2022-10-09T00:50:24.182Z,7.60
2022-10-09T00:52:58.959Z,7.80
2022-10-09T00:55:28.086Z,7.60
2022-10-09T00:57:58.450Z,7.70
2022-10-09T01:00:26.764Z,7.60
2022-10-09T01:02:54.811Z,7.70
2022-10-09T01:05:43.183Z,7.60
2022-10-09T01:08:38.054Z,7.50
2022-10-09T01:11:26.655Z,7.40
2022-10-09T01:14:08.987Z,7.20
2022-10-09T01:16:41.536Z,7.10
2022-10-09T01:19:14.442Z,7.00
2022-10-09T01:21:48.124Z,6.90
2022-10-09T01:24:15.441Z,6.70
2022-10-09T01:27:04.944Z,6.60
2022-10-09T01:29:41.130Z,6.70
2022-10-09T01:32:11.163Z,6.70
2022-10-09T01:34:40.779Z,6.80
2022-10-09T01:37:10.871Z,6.80
2022-10-09T01:39:39.035Z,6.80
2022-10-09T01:42:07.123Z,6.90
2022-10-09T01:44:34.572Z,6.80
2022-10-09T01:47:02.119Z,6.80
2022-10-09T01:49:46.223Z,6.70
2022-10-09T01:52:53.048Z,6.70
2022-10-09T01:55:46.999Z,6.80
2022-10-09T01:58:30.448Z,6.70
2022-10-09T02:01:17.751Z,6.80
2022-10-09T02:03:49.211Z,6.80
2022-10-09T02:06:28.241Z,6.70
2022-10-09T02:08:56.144Z,6.60
2022-10-09T02:11:27.863Z,6.60
2022-10-09T02:13:56.418Z,6.50
2022-10-09T02:16:37.839Z,6.50
2022-10-09T02:19:34.701Z,6.60
2022-10-09T02:22:35.931Z,6.70
2022-10-09T02:25:06.388Z,6.70
2022-10-09T02:27:34.647Z,6.80
2022-10-09T02:30:03.973Z,7.00
2022-10-09T02:32:31.372Z,7.00
2022-10-09T02:34:58.828Z,7.20
2022-10-09T02:37:32.461Z,7.10
2022-10-09T02:39:59.848Z,7.30
2022-10-09T02:42:27.334Z,7.20
2022-10-09T02:44:54.668Z,7.10
2022-10-09T02:47:21.985Z,7.00
2022-10-09T02:49:49.353Z,7.00
2022-10-09T02:52:16.736Z,7.00
2022-10-09T02:54:44.122Z,6.90
2022-10-09T02:57:11.529Z,6.80
2022-10-09T02:59:38.905Z,6.70
2022-10-09T03:02:06.656Z,6.60
2022-10-09T03:04:34.145Z,6.60
2022-10-09T03:07:01.645Z,6.60
2022-10-09T03:09:33.405Z,6.50
2022-10-09T03:12:01.102Z,6.50
2022-10-09T03:14:28.549Z,6.40
2022-10-09T03:16:55.881Z,6.40
2022-10-09T03:19:23.222Z,6.30
2022-10-09T03:21:50.660Z,6.20
2022-10-09T03:24:18.041Z,6.20
2022-10-09T03:26:45.440Z,6.20
2022-10-09T03:29:12.873Z,6.30
2022-10-09T03:31:51.927Z,6.40
2022-10-09T03:34:20.738Z,6.50
2022-10-09T03:36:48.138Z,6.60
2022-10-09T03:39:15.502Z,6.70
2022-10-09T03:41:45.302Z,6.80
2022-10-09T03:44:12.774Z,6.80
2022-10-09T03:46:40.210Z,6.90
2022-10-09T03:49:08.057Z,7.00
2022-10-09T03:51:35.399Z,6.90
2022-10-09T03:54:02.805Z,6.80
2022-10-09T03:56:30.315Z,6.70
2022-10-09T03:58:57.655Z,6.70
2022-10-09T04:01:25.047Z,6.80
2022-10-09T04:03:52.451Z,6.80
2022-10-09T04:06:23.463Z,6.90
2022-10-09T04:08:50.815Z,6.90
2022-10-09T04:11:18.260Z,6.90
2022-10-09T04:13:45.667Z,6.80
2022-10-09T04:16:13.131Z,6.90
2022-10-09T04:18:42.635Z,6.80
2022-10-09T04:21:10.443Z,6.80
2022-10-09T04:23:37.789Z,6.80
2022-10-09T04:26:05.416Z,6.80
2022-10-09T04:28:32.912Z,6.80
2022-10-09T04:31:00.349Z,6.80
2022-10-09T04:33:27.851Z,6.80
2022-10-09T04:35:58.463Z,6.70
2022-10-09T04:38:26.355Z,6.80
2022-10-09T04:40:57.813Z,6.70
2022-10-09T04:43:25.725Z,6.60
2022-10-09T04:45:53.336Z,6.60
2022-10-09T04:48:20.796Z,6.70
2022-10-09T04:50:48.302Z,6.80
2022-10-09T04:53:15.889Z,6.70
2022-10-09T04:55:44.060Z,6.80
2022-10-09T04:58:12.832Z,6.80
2022-10-09T05:00:45.267Z,6.80
2022-10-09T05:03:12.962Z,6.80
2022-10-09T05:05:46.665Z,6.80
2022-10-09T05:08:14.019Z,6.80
2022-10-09T05:10:41.441Z,6.70
2022-10-09T05:13:08.806Z,6.60
2022-10-09T05:15:37.648Z,6.60
2022-10-09T05:18:05.086Z,6.70
2022-10-09T05:20:32.449Z,6.60
2022-10-09T05:22:59.801Z,6.60
2022-10-09T05:25:27.477Z,6.60
2022-10-09T05:27:54.837Z,6.60
2022-10-09T05:30:22.319Z,6.70
2022-10-09T05:32:50.142Z,6.70
2022-10-09T05:35:17.657Z,6.70
2022-10-09T05:37:45.568Z,6.70
2022-10-09T05:40:12.854Z,6.80
2022-10-09T05:42:40.297Z,6.70
2022-10-09T05:45:08.454Z,6.70
2022-10-09T05:47:35.794Z,6.70
2022-10-09T05:50:03.486Z,6.70
2022-10-09T05:52:30.866Z,6.70
2022-10-09T05:54:58.354Z,6.80
2022-10-09T05:57:26.445Z,6.70
2022-10-09T05:59:53.910Z,6.80
2022-10-09T06:02:21.264Z,6.90
2022-10-09T06:04:48.723Z,7.00
2022-10-09T06:07:16.244Z,7.10
2022-10-09T06:09:43.554Z,7.30
2022-10-09T06:12:10.891Z,7.30
2022-10-09T06:14:38.208Z,7.50
2022-10-09T06:17:05.771Z,7.50
2022-10-09T06:19:33.175Z,7.70
2022-10-09T06:22:00.599Z,7.70
2022-10-09T06:24:29.316Z,7.80
2022-10-09T06:27:08.860Z,7.80
2022-10-09T06:29:43.128Z,7.90
2022-10-09T06:32:10.484Z,8.00
2022-10-09T06:34:40.554Z,8.10
2022-10-09T06:37:08.162Z,8.10
2022-10-09T06:39:35.539Z,8.20
2022-10-09T06:42:04.108Z,8.10
2022-10-09T06:44:43.092Z,8.30
2022-10-09T06:47:10.483Z,8.30
2022-10-09T06:49:37.863Z,8.30
2022-10-09T06:52:05.269Z,8.40
2022-10-09T06:54:32.715Z,8.40
2022-10-09T06:57:00.081Z,8.40
2022-10-09T06:59:27.562Z,8.50
2022-10-09T07:01:56.819Z,8.50
2022-10-09T07:04:24.383Z,8.50
2022-10-09T07:06:51.948Z,8.60
2022-10-09T07:09:19.348Z,8.60
2022-10-09T07:11:51.940Z,8.60
2022-10-09T07:22:23.581Z,8.70
2022-10-09T07:24:56.722Z,8.80
2022-10-09T07:27:29.528Z,8.70
2022-10-09T07:30:00.852Z,8.80
2022-10-09T07:32:30.896Z,8.80
2022-10-09T07:35:03.820Z,8.90
2022-10-09T07:38:04.821Z,8.90
2022-10-09T07:40:59.290Z,8.90
2022-10-09T07:43:32.685Z,9.00
2022-10-09T07:46:04.601Z,8.90
2022-10-09T07:48:33.549Z,8.90
2022-10-09T07:51:18.601Z,9.00
2022-10-09T07:53:46.990Z,9.00
2022-10-09T07:56:24.085Z,9.00
2022-10-09T07:59:01.177Z,9.10
2022-10-09T08:01:33.123Z,9.10
2022-10-09T08:04:04.497Z,9.20
2022-10-09T08:06:43.245Z,9.20
2022-10-09T08:09:16.745Z,9.20
2022-10-09T08:11:52.901Z,9.30
2022-10-09T08:14:28.249Z,9.30
2022-10-09T08:16:59.506Z,9.40
2022-10-09T08:19:26.849Z,9.50
2022-10-09T08:21:54.121Z,9.60
2022-10-09T08:24:21.397Z,9.70
2022-10-09T08:26:48.719Z,9.70
2022-10-09T08:29:16.885Z,9.70
2022-10-09T08:31:44.189Z,9.80
2022-10-09T08:34:11.992Z,9.90
2022-10-09T08:36:39.462Z,10.00
2022-10-09T08:39:06.786Z,9.90
2022-10-09T08:41:40.023Z,10.00
2022-10-09T08:44:18.323Z,10.00
2022-10-09T08:46:49.487Z,10.20
2022-10-09T08:49:36.704Z,10.20
2022-10-09T08:52:38.791Z,10.20
2022-10-09T08:55:43.927Z,10.20
2022-10-09T08:58:19.503Z,10.40
2022-10-09T09:00:56.767Z,10.50
2022-10-09T09:03:50.130Z,10.40
2022-10-09T09:06:55.123Z,10.40
2022-10-09T09:09:44.311Z,10.40
2022-10-09T09:12:17.591Z,10.50
2022-10-09T09:15:05.899Z,10.60
2022-10-09T09:18:15.045Z,10.60
2022-10-09T09:21:15.396Z,10.60
2022-10-09T09:23:48.831Z,10.70
2022-10-09T09:26:19.743Z,10.70
2022-10-09T09:28:51.183Z,10.80
2022-10-09T09:31:25.704Z,10.90
2022-10-09T09:34:39.612Z,10.90
2022-10-09T09:37:11.254Z,10.90
2022-10-09T09:40:31.354Z,11.00
2022-10-09T09:42:41.572Z,11.00
2022-10-09T09:45:25.375Z,11.00
2022-10-09T09:48:06.207Z,11.10
2022-10-09T09:50:59.954Z,11.00
2022-10-09T09:54:28.451Z,11.00
2022-10-09T09:57:41.308Z,11.10
2022-10-09T10:00:16.729Z,11.20
2022-10-09T10:02:44.684Z,11.40
2022-10-09T10:05:28.424Z,11.40
2022-10-09T10:08:12.833Z,11.50
2022-10-09T10:10:46.036Z,11.60
2022-10-09T10:13:49.279Z,11.50
2022-10-09T10:16:29.544Z,11.60
2022-10-09T10:19:00.169Z,11.70
2022-10-09T10:21:27.581Z,11.80
2022-10-09T10:24:03.577Z,11.80
2022-10-09T10:26:40.757Z,11.70
2022-10-09T10:29:25.101Z,11.90
2022-10-09T10:32:02.490Z,11.90
2022-10-09T10:34:33.489Z,11.90
2022-10-09T10:37:14.012Z,11.80
2022-10-09T10:40:00.345Z,11.90
2022-10-09T10:42:44.081Z,12.00
2022-10-09T10:45:39.929Z,11.90
2022-10-09T10:48:18.016Z,11.90
2022-10-09T10:50:58.691Z,11.90
2022-10-09T10:53:53.921Z,12.00
2022-10-09T10:56:30.713Z,12.00
2022-10-09T10:59:20.341Z,12.10
2022-10-09T11:02:00.255Z,12.10
2022-10-09T11:05:04.757Z,12.20
2022-10-09T11:07:42.008Z,12.20
2022-10-09T11:10:26.090Z,12.30
2022-10-09T11:13:16.750Z,12.30
2022-10-09T11:15:59.768Z,12.30
2022-10-09T11:18:46.058Z,12.40
2022-10-09T11:21:36.796Z,12.50
2022-10-09T11:24:26.890Z,12.50
2022-10-09T11:27:20.938Z,12.50
2022-10-09T11:29:58.549Z,12.50
2022-10-09T11:32:30.934Z,12.60
2022-10-09T11:35:05.509Z,12.60
2022-10-09T11:37:39.128Z,12.60
2022-10-09T11:40:19.924Z,12.50
2022-10-09T11:42:58.178Z,12.50
2022-10-09T11:45:58.468Z,12.50
2022-10-09T11:48:51.950Z,12.50
2022-10-09T11:51:44.081Z,12.50
2022-10-09T11:54:15.600Z,12.60
2022-10-09T11:56:57.783Z,12.60
2022-10-09T12:06:11.123Z,12.50
2022-10-09T12:08:42.148Z,12.90
2022-10-09T12:11:13.863Z,12.70
2022-10-09T12:13:43.316Z,12.80
2022-10-09T12:16:46.665Z,12.90
2022-10-09T12:19:39.375Z,12.80
2022-10-09T12:45:07.612Z,12.80
2022-10-09T12:47:47.981Z,12.80
2022-10-09T13:00:03.013Z,12.80
2022-10-09T13:04:11.380Z,12.80
2022-10-09T13:14:04.849Z,12.80
2022-10-09T13:16:47.626Z,12.80
2022-10-09T13:19:37.127Z,12.70
2022-10-09T13:22:21.491Z,12.70
2022-10-09T13:24:58.589Z,12.70
2022-10-09T13:27:41.845Z,12.70
2022-10-09T13:30:11.555Z,12.70
2022-10-09T13:32:39.265Z,12.70
2022-10-09T13:35:09.726Z,12.70
2022-10-09T13:37:42.880Z,12.70
2022-10-09T13:40:18.257Z,12.70
2022-10-09T13:43:02.303Z,12.70
2022-10-09T13:45:37.609Z,12.60
2022-10-09T13:48:09.813Z,12.50
2022-10-09T13:50:47.121Z,12.60
2022-10-09T13:53:18.117Z,12.50
2022-10-09T13:55:50.778Z,12.50
2022-10-09T13:58:23.242Z,12.50
2022-10-09T14:00:54.227Z,12.40
2022-10-09T14:03:24.541Z,12.40
2022-10-09T14:06:01.245Z,12.40
2022-10-09T14:08:29.442Z,12.30
2022-10-09T14:11:01.889Z,12.30
2022-10-09T14:13:32.764Z,12.30
2022-10-09T14:16:04.288Z,12.30
2022-10-09T14:18:37.083Z,12.20
2022-10-09T14:21:15.072Z,12.20
2022-10-09T14:23:43.142Z,12.20
2022-10-09T14:26:10.603Z,12.20
2022-10-09T14:28:38.109Z,12.10
2022-10-09T14:31:08.595Z,12.10
2022-10-09T14:33:36.001Z,12.20
2022-10-09T14:36:43.033Z,12.10
2022-10-09T14:39:10.411Z,12.10
2022-10-09T14:41:38.147Z,12.10
2022-10-09T14:44:07.007Z,12.10
2022-10-09T14:46:34.927Z,12.10
2022-10-09T14:49:07.290Z,12.10
2022-10-09T14:51:39.911Z,12.10
2022-10-09T14:54:08.500Z,12.00
2022-10-09T14:56:36.151Z,12.00
2022-10-09T14:59:06.010Z,12.00
2022-10-09T15:01:34.054Z,12.00
2022-10-09T15:04:02.387Z,12.00
2022-10-09T15:06:36.275Z,12.00
2022-10-09T15:09:05.936Z,12.00
2022-10-09T15:11:35.158Z,12.00
2022-10-09T15:14:03.369Z,11.90
2022-10-09T15:16:30.746Z,11.90
2022-10-09T15:18:58.371Z,11.90
2022-10-09T15:21:29.076Z,11.90
2022-10-09T15:23:58.600Z,11.80
2022-10-09T15:26:27.782Z,11.80
2022-10-09T15:28:55.505Z,11.80
2022-10-09T15:31:32.160Z,11.80
2022-10-09T15:34:03.386Z,11.80
2022-10-09T15:36:39.777Z,11.70
2022-10-09T15:39:08.886Z,11.70
2022-10-09T15:41:38.964Z,11.60
2022-10-09T15:44:16.465Z,11.60
2022-10-09T15:46:44.490Z,11.60
2022-10-09T15:49:12.529Z,11.60
2022-10-09T15:51:40.261Z,11.50
2022-10-09T15:54:07.758Z,11.50
2022-10-09T15:56:39.712Z,11.50
2022-10-09T15:59:10.323Z,11.50
2022-10-09T16:01:37.684Z,11.40
2022-10-09T16:04:05.221Z,11.40
2022-10-09T16:06:32.541Z,11.40
2022-10-09T16:09:00.854Z,11.40
2022-10-09T16:11:28.237Z,11.40
2022-10-09T16:13:56.076Z,11.30
2022-10-09T16:16:28.281Z,11.30
2022-10-09T16:19:04.506Z,11.30
2022-10-09T16:21:32.403Z,11.30
2022-10-09T16:24:00.417Z,11.20
2022-10-09T16:26:29.358Z,11.20
2022-10-09T16:28:57.241Z,11.20
2022-10-09T16:31:30.098Z,11.20
2022-10-09T16:34:01.070Z,11.10
2022-10-09T16:36:28.768Z,11.10
2022-10-09T16:38:57.759Z,11.00
2022-10-09T16:41:25.178Z,11.00
2022-10-09T16:43:54.948Z,11.00
2022-10-09T16:46:26.988Z,10.90
2022-10-09T16:48:55.966Z,10.70
2022-10-09T16:51:26.595Z,10.80
2022-10-09T16:53:56.291Z,10.70
2022-10-09T16:56:26.567Z,10.60
2022-10-09T16:58:56.042Z,10.60
2022-10-09T17:01:24.867Z,10.50
2022-10-09T17:03:55.351Z,10.50
2022-10-09T17:06:23.811Z,10.40
2022-10-09T17:08:52.991Z,10.40
2022-10-09T17:11:21.809Z,10.40
2022-10-09T17:13:49.319Z,10.30
2022-10-09T17:16:19.843Z,10.30
2022-10-09T17:18:48.250Z,10.40
2022-10-09T17:21:17.604Z,10.40
2022-10-09T17:23:46.616Z,10.40
2022-10-09T17:26:17.028Z,10.40
2022-10-09T17:28:45.546Z,10.30
2022-10-09T17:31:15.763Z,10.30
2022-10-09T17:33:45.973Z,10.30
2022-10-09T17:36:15.876Z,10.30
2022-10-09T17:38:44.545Z,10.30
2022-10-09T17:41:20.601Z,10.20
2022-10-09T17:43:47.977Z,10.20
2022-10-09T17:46:21.731Z,10.20
2022-10-09T17:49:28.710Z,10.20
2022-10-09T17:52:05.750Z,10.30
2022-10-09T17:54:33.435Z,10.10
2022-10-09T17:57:01.376Z,10.10
2022-10-09T17:59:28.724Z,10.10
2022-10-09T18:02:27.449Z,10.10
2022-10-09T18:04:58.018Z,10.00
2022-10-09T18:07:58.837Z,10.10
2022-10-09T18:10:26.189Z,10.10
2022-10-09T18:12:53.592Z,10.00
2022-10-09T18:15:20.898Z,10.00
2022-10-09T18:17:48.596Z,10.00
2022-10-09T18:20:16.309Z,9.90
2022-10-09T18:22:43.601Z,9.90
2022-10-09T18:25:10.901Z,9.80
2022-10-09T18:27:38.495Z,9.80
2022-10-09T18:30:06.458Z,9.80
2022-10-09T18:32:33.870Z,9.80
2022-10-09T18:35:01.341Z,9.80
2022-10-09T18:38:02.746Z,9.80
2022-10-09T18:40:30.321Z,9.70
2022-10-09T18:42:58.302Z,9.60
2022-10-09T18:45:28.299Z,9.70
2022-10-09T18:47:55.752Z,9.70
2022-10-09T18:50:23.628Z,9.70
2022-10-09T18:52:51.372Z,9.60
2022-10-09T18:55:22.730Z,9.60
2022-10-09T18:57:51.383Z,9.60
2022-10-09T19:00:36.968Z,9.60
2022-10-09T19:03:04.547Z,9.50
2022-10-09T19:06:47.158Z,9.50
2022-10-09T19:09:14.731Z,9.50
2022-10-09T19:11:42.267Z,9.50
2022-10-09T19:14:09.626Z,9.50
2022-10-09T19:16:37.015Z,9.40
2022-10-09T19:19:04.524Z,9.40
2022-10-09T19:21:31.904Z,9.40
2022-10-09T19:24:03.489Z,9.40
2022-10-09T19:26:32.787Z,9.40
2022-10-09T19:29:00.350Z,9.40
2022-10-09T19:31:31.335Z,9.40
2022-10-09T19:34:04.003Z,9.40
2022-10-09T19:36:37.728Z,9.30
2022-10-09T19:39:06.907Z,9.30
2022-10-09T19:41:34.360Z,9.30
2022-10-09T19:44:01.699Z,9.20
2022-10-09T19:46:29.201Z,9.20
2022-10-09T19:48:56.639Z,9.10
2022-10-09T19:51:26.375Z,9.20
2022-10-09T19:53:54.731Z,9.20
2022-10-09T19:56:28.347Z,9.10
2022-10-09T19:58:56.337Z,9.10
2022-10-09T20:01:26.482Z,9.10
2022-10-09T20:03:59.116Z,9.00
2022-10-09T20:07:12.647Z,9.00
2022-10-09T20:09:40.376Z,9.00
2022-10-09T20:12:08.136Z,9.00
2022-10-09T20:14:35.540Z,9.00
2022-10-09T20:17:02.852Z,8.90
2022-10-09T20:19:31.459Z,8.90
2022-10-09T20:21:58.797Z,8.90
2022-10-09T20:24:26.204Z,8.90
2022-10-09T20:26:53.612Z,8.80
2022-10-09T20:29:20.948Z,8.80
2022-10-09T20:31:48.871Z,8.90
2022-10-09T20:34:16.825Z,8.80
2022-10-09T20:36:44.913Z,8.80
2022-10-09T20:39:14.640Z,8.80
2022-10-09T20:41:43.368Z,8.70
2022-10-09T20:44:11.590Z,8.60
2022-10-09T20:46:40.125Z,8.60
2022-10-09T20:49:14.475Z,8.50
2022-10-09T20:51:42.762Z,8.30
2022-10-09T20:54:20.713Z,8.10
2022-10-09T20:56:49.552Z,8.10
2022-10-09T20:59:18.003Z,8.00
2022-10-09T21:01:45.828Z,8.00
2022-10-09T21:04:14.930Z,7.90
2022-10-09T21:06:42.627Z,7.70
2022-10-09T21:09:10.165Z,7.60
2022-10-09T21:11:38.909Z,7.50
2022-10-09T21:14:06.257Z,7.60
2022-10-09T21:16:33.649Z,7.60
2022-10-09T21:19:04.109Z,7.70
2022-10-09T21:21:32.009Z,7.70
2022-10-09T21:24:00.250Z,7.70
2022-10-09T21:26:35.202Z,7.70
2022-10-09T21:29:06.128Z,7.60
2022-10-09T21:31:34.496Z,7.60
2022-10-09T21:34:02.315Z,7.70
2022-10-09T21:37:20.531Z,7.80
2022-10-09T21:39:49.142Z,7.90
2022-10-09T21:42:16.545Z,7.80
2022-10-09T21:44:43.846Z,7.80
2022-10-09T21:47:21.238Z,7.90
2022-10-09T21:49:48.618Z,7.80
2022-10-09T21:52:16.032Z,7.70
2022-10-09T21:54:43.406Z,7.70
2022-10-09T21:57:10.783Z,7.80
2022-10-09T21:59:38.175Z,7.80
2022-10-09T22:02:05.659Z,7.80
2022-10-09T22:04:33.104Z,7.90
2022-10-09T22:07:00.438Z,7.80
2022-10-09T22:09:27.794Z,7.80
2022-10-09T22:11:56.762Z,7.80
2022-10-09T22:14:24.083Z,7.80
2022-10-09T22:16:51.495Z,7.80
2022-10-09T22:19:18.999Z,7.80
2022-10-09T22:21:46.379Z,7.80
2022-10-09T22:24:13.771Z,7.80
2022-10-09T22:26:41.096Z,7.80
2022-10-09T22:29:08.460Z,7.80
2022-10-09T22:31:35.832Z,7.80
2022-10-09T22:34:03.463Z,7.80
2022-10-09T22:37:14.447Z,7.80
2022-10-09T22:39:41.792Z,7.80
2022-10-09T22:42:09.092Z,7.80
2022-10-09T22:44:36.436Z,7.80
2022-10-09T22:47:03.831Z,7.70
2022-10-09T22:49:31.145Z,7.80
2022-10-09T22:51:58.480Z,7.70
2022-10-09T22:54:25.855Z,7.70
2022-10-09T22:56:53.229Z,7.70
2022-10-09T22:59:20.591Z,7.70
2022-10-09T23:01:54.586Z,7.70
2022-10-09T23:04:22.977Z,7.60
2022-10-09T23:06:55.740Z,7.60
2022-10-09T23:09:24.933Z,7.60
2022-10-09T23:11:52.280Z,7.60
2022-10-09T23:14:19.888Z,7.60
2022-10-09T23:16:47.268Z,7.60
2022-10-09T23:19:15.141Z,7.50
2022-10-09T23:21:43.956Z,7.50
2022-10-09T23:24:15.312Z,7.40
2022-10-09T23:26:42.672Z,7.50
2022-10-09T23:29:15.970Z,7.50
2022-10-09T23:31:44.573Z,7.50
2022-10-09T23:34:12.073Z,7.40
2022-10-09T23:36:39.573Z,7.40
2022-10-09T23:39:07.447Z,7.30
2022-10-09T23:41:35.233Z,7.40
2022-10-09T23:44:02.736Z,7.40
2022-10-09T23:46:33.746Z,7.30
2022-10-09T23:49:01.563Z,7.20
2022-10-09T23:51:30.029Z,7.10
2022-10-09T23:53:57.829Z,7.00
2022-10-09T23:56:29.031Z,7.00
2022-10-09T23:58:57.389Z,6.90
